AirNav   Everest Fuels
 
 1473 users online  

80C Lone Hickory Airport
Yadkinville, North Carolina, USA

GOING TO YADKINVILLE?


FAA INFORMATION EFFECTIVE 02 DECEMBER 2021

Location

FAA Identifier: 80C
Lat/Long: 36-03-37.8520N 080-41-24.3600W
36-03.630867N 080-41.406000W
36.0605144,-80.6901000
(estimated)
Elevation: 1015 ft. / 309 m (estimated)
Variation: 06W (1995)
From city: 6 miles S of YADKINVILLE, NC
Time zone: UTC -5 (UTC -4 during Daylight Saving Time)
Zip code: 27055

Airport Operations

Airport use: Open to the public
Activation date: 12/1997
Control tower: no
ARTCC: ATLANTA CENTER
FSS: RALEIGH FLIGHT SERVICE STATION
NOTAMs facility: RDU (NOTAM-D service available)
Attendance: IREG
Wind indicator: yes
Segmented circle: no

Airport Communications

CTAF: 122.9

Nearby radio navigation aids

VOR radial/distance  VOR name  Freq  Var
BZMr073/29.1BARRETTS MOUNTAIN VOR/DME113.7506W
GSOr274/34.6GREENSBORO VORTAC116.2003W

 
NDB name  Hdg/Dist  Freq  Var  ID
ASHEE133/37.941007WJUH .--- ..- ....

Airport Services

Runway Information

Runway 16/34

Dimensions: 2000 x 60 ft. / 610 x 18 m
Surface: turf, in good condition
RUNWAY 16  RUNWAY 34
Latitude: 36-03.773400N36-03.488333N
Longitude: 080-41.508000W080-41.304000W
Elevation: 943.0 ft.1015.0 ft.
Traffic pattern: leftleft
Runway heading: 156 magnetic, 150 true336 magnetic, 330 true
Obstructions: 10 ft. road, 6 ft. from runway, 25 ft. left and right of centerline48 ft. trees, 299 ft. from runway, 115 ft. right of centerline, 6:1 slope to clear

Airport Ownership and Management from official FAA records

Ownership: Privately-owned
Owner: HAROLD DEAN HOLCOMB
1205 RUNWAY TRAIL
YADKINVILLE, NC 27055
Phone (336) 468-0641
Manager: HAROLD DEAN HOLCOMB
1205 RUNWAY TRAIL
YADKINVILLE, NC 27055
Phone (336) 468-0641

Airport Operational Statistics

Aircraft based on the field: 6
Single engine airplanes: 6
    
Aircraft operations: avg 46/month *
91% local general aviation
9% transient general aviation
* for 12-month period ending 16 August 2019

Additional Remarks

ACFT OPERATING FM PINEY RIDGE ARPT 1.3 MI NW.
PLINES 500-1000 FT N RY 16 THLD.
RY 16/34 HAS 3% GRADE; WINDS PERMITTING TKOF RY 16 LND RY 34.
NO FLIGHT TRAINING OR STUDENT PILOTS; ONLY EXPERIENCED PILOTS PERMITTED.
RY 16 DEPARTURES MAKE LEFT TURN FOR NOISE & OBSTRUCTION AVOIDANCE.
FOR CD CTC ATLANTA ARTCC AT 770-210-7692.
RUNWAY CLOSED TO TURBINE AIRCRAFT AND GROSS WEIGHTS GREATER THAN 5000 POUNDS EXCEPT WITH PRIOR PERMISSION (DUE TO SOFT TURF)

Instrument Procedures

There are no published instrument procedures at 80C.

Some nearby airports with instrument procedures:

KZEF - Elkin Municipal Airport (14 nm N)
8A7 - Twin Lakes Airport (14 nm SE)
KSVH - Statesville Regional Airport (22 nm SW)
KUKF - Wilkes County Airport (22 nm NW)
KINT - Smith Reynolds Airport (23 nm E)
 
Loc | Ops | Rwys | IFR | FBO | Links
Com | Nav | Svcs | Stats | Notes
Area around 80C (Lone Hickory Airport)
 
Road maps at: MapQuest Bing Google
 
Aerial photo
No photo
 
Sectional chart

 
Airport distance calculator
Flying to Lone Hickory Airport? Find the distance to fly.

From to 80C

Sunrise and sunset
Times for 06-Dec-2021
 Local
(UTC-5)
 Zulu
(UTC)
Morning civil twilight06:5211:52
Sunrise07:2012:20
Sunset17:0722:07
Evening civil twilight17:3622:36

Current date and time
Zulu (UTC)  06-Dec-2021 20:25:42
Local (UTC-5)  06-Dec-2021 15:25:42
 
METAR
KUKF 
22nm NW 
061955Z AUTO 30003KT 10SM SCT033 BKN075 18/11 A2990 RMK AO2
KSVH 
23nm SW 
061955Z AUTO 21011G18KT 10SM CLR 19/13 A2986 RMK AO2 T01920127
KINT 
23nm E 
061954Z 23013G23KT 190V270 10SM CLR 20/11 A2985 RMK AO2 SLP101 T02000111
KEXX 
25nm SE 
061955Z AUTO 21011G17KT 10SM CLR 19/13 A2987 RMK AO2 T01910125
KMWK 
25nm N 
061955Z AUTO 23005KT 10SM 19/11 A2986 RMK AO2 T01860114
KRUQ 
26nm S 
061955Z AUTO 20011G17KT 10SM SCT120 19/12 A2988 RMK AO2 T01870121
KGSO 
36nm E 
061954Z 23015G30KT 10SM FEW037 SCT090 OVC250 20/11 A2985 RMK AO2 PK WND 23030/1950 SLP100 T02000111
KHKY 
38nm SW 
061953Z 20013G20KT 10SM SCT090 BKN110 18/13 A2987 RMK AO2 SLP098 T01780128
KJQF 
41nm S 
061950Z 26018G23KT 10SM SCT080 19/13 A2993
KGEV 
42nm NW 
061955Z AUTO 00000KT 10SM BKN035 OVC043 14/06 A2989 RMK AO2 T01410059
TAF
KINT 
23nm E 
061734Z 0618/0718 22012G25KT P6SM SCT035 FM062300 28012G20KT P6SM VCSH OVC025 FM070100 31008G15KT P6SM OVC050 FM070600 34010G16KT P6SM SCT100
NOTAMs
Click for the latest NOTAMs
NOTAMs are issued by the DoD/FAA and will open in a separate window not controlled by AirNav.

 

 
 

Would you like to see your business listed on this page?

 If your business provides an interesting product or service to pilots, flight crews, aircraft, or users of the Lone Hickory Airport, you should consider listing it here.  To start the listing process, click on the button below
 
Add a business
 

Other Pages about Lone Hickory Airport

Update a link
 
Copyright © AirNav, LLC. All rights reserved. Privacy Policy  Contact